Time;durP1;ratioP1;P1;durP2;ratioP2;P2;SDS_P1;SDS_P2;PMS_P1;PMS_P2;Temp;Humidity;BMP_temperature;BMP_pressure;BME280_temperature;BME280_humidity;BME280_pressure;Samples;Min_cycle;Max_cycle;Signal;HPM_P1;HPM_P2
2022/05/29 00:01:19;;;;;;;12.82;3.00;;;10.50;81.50;;;;;;5011774;28;20037;-44
2022/05/29 00:03:45;;;;;;;17.50;5.03;;;10.50;81.80;;;;;;5041495;28;20047;-44
2022/05/29 00:06:12;;;;;;;20.05;4.22;;;10.50;82.20;;;;;;5043928;28;20041;-44
2022/05/29 00:08:40;;;;;;;16.08;4.78;;;10.50;82.60;;;;;;5030238;28;20358;-43
2022/05/29 00:11:07;;;;;;;16.05;4.28;;;10.50;83.30;;;;;;5030113;28;20064;-44
2022/05/29 00:13:33;;;;;;;21.15;5.05;;;10.40;84.00;;;;;;5031627;28;20018;-44
2022/05/29 00:15:59;;;;;;;16.85;3.95;;;10.40;84.30;;;;;;5031711;28;20040;-45
2022/05/29 00:18:25;;;;;;;15.70;4.28;;;10.40;84.30;;;;;;5031069;28;20029;-46
2022/05/29 00:20:56;;;;;;;23.30;4.70;;;10.40;84.10;;;;;;5031071;28;20036;-44
2022/05/29 00:23:24;;;;;;;19.50;5.45;;;10.40;83.90;;;;;;5023751;28;20039;-46
2022/05/29 00:25:52;;;;;;;21.73;6.05;;;10.40;83.70;;;;;;5010737;28;20030;-42
2022/05/29 00:28:18;;;;;;;23.25;4.85;;;10.40;83.70;;;;;;5021657;28;20033;-44
2022/05/29 00:30:45;;;;;;;21.92;4.55;;;10.40;83.70;;;;;;5030364;28;20041;-45
2022/05/29 00:33:10;;;;;;;20.35;5.45;;;10.40;83.90;;;;;;5030506;28;20354;-44
2022/05/29 00:35:39;;;;;;;23.95;7.43;;;10.50;84.00;;;;;;5047228;28;20025;-43
2022/05/29 00:38:05;;;;;;;21.48;5.63;;;10.50;83.90;;;;;;5035832;28;20029;-43
2022/05/29 00:40:45;;;;;;;24.23;5.68;;;10.50;83.60;;;;;;5048751;28;20580;-44
2022/05/29 00:43:11;;;;;;;18.38;4.60;;;10.50;83.30;;;;;;5048119;28;20056;-45
2022/05/29 00:46:06;;;;;;;22.33;5.50;;;10.50;83.00;;;;;;5021707;28;20048;-43
2022/05/29 00:48:31;;;;;;;28.88;6.63;;;10.60;83.20;;;;;;5013422;28;20055;-43
2022/05/29 00:51:05;;;;;;;18.98;4.95;;;10.60;83.40;;;;;;5027693;28;20037;-44
2022/05/29 00:53:33;;;;;;;28.50;6.40;;;10.60;83.50;;;;;;5044493;28;20041;-44
2022/05/29 00:56:08;;;;;;;20.35;5.60;;;10.60;83.20;;;;;;5050807;28;20024;-43
2022/05/29 00:58:34;;;;;;;16.80;4.30;;;10.60;82.90;;;;;;5046677;28;20029;-44
2022/05/29 01:01:04;;;;;;;23.38;5.97;;;10.70;82.90;;;;;;5042792;28;20029;-45
2022/05/29 01:03:30;;;;;;;;;;;10.70;82.90;;;;;;5030409;28;20456;-46
2022/05/29 01:05:55;;;;;;;17.15;4.88;;;10.60;82.90;;;;;;5043321;28;19971;-45
2022/05/29 01:08:27;;;;;;;19.48;5.28;;;10.60;83.00;;;;;;5030393;28;20082;-44
2022/05/29 01:11:39;;;;;;;19.00;4.05;;;10.70;83.10;;;;;;5028927;28;20033;-44
2022/05/29 01:14:21;;;;;;;22.77;4.15;;;10.70;83.20;;;;;;5022410;28;20032;-46
2022/05/29 01:16:50;;;;;;;29.23;6.78;;;10.70;83.00;;;;;;5050361;28;20033;-44
2022/05/29 01:19:34;;;;;;;15.82;4.32;;;10.60;83.10;;;;;;5048245;28;20017;-45
2022/05/29 01:22:25;;;;;;;26.45;5.63;;;10.60;83.40;;;;;;5042030;28;20028;-44
2022/05/29 01:25:05;;;;;;;21.73;5.53;;;10.60;83.40;;;;;;5031403;28;20427;-44
2022/05/29 01:27:49;;;;;;;24.95;5.45;;;10.60;83.20;;;;;;5036062;28;20035;-45
2022/05/29 01:30:21;;;;;;;18.80;4.40;;;10.70;83.00;;;;;;5048825;28;20025;-42
2022/05/29 01:33:27;;;;;;;19.50;4.90;;;10.60;82.70;;;;;;5037908;28;20034;-43
2022/05/29 01:35:56;;;;;;;18.45;5.07;;;10.60;82.00;;;;;;5029308;28;20080;-43
2022/05/29 01:38:35;;;;;;;18.00;4.85;;;10.60;81.90;;;;;;5035162;28;20033;-43
2022/05/29 01:41:11;;;;;;;21.77;4.63;;;10.50;81.90;;;;;;5028731;28;20128;-44
2022/05/29 01:43:56;;;;;;;18.20;4.78;;;10.60;82.20;;;;;;5029918;28;20498;-44
2022/05/29 01:46:27;;;;;;;21.50;4.78;;;10.50;82.20;;;;;;5036536;28;20063;-44
2022/05/29 01:49:33;;;;;;;15.82;4.10;;;10.50;82.30;;;;;;5037999;28;20029;-46
2022/05/29 01:52:04;;;;;;;18.48;4.55;;;10.60;82.70;;;;;;5021460;28;20048;-48
2022/05/29 01:54:32;;;;;;;18.83;4.85;;;10.50;83.40;;;;;;5033960;28;20040;-44
2022/05/29 01:57:25;;;;;;;18.42;4.22;;;10.50;84.20;;;;;;5049754;28;20051;-44
2022/05/29 02:00:30;;;;;;;16.77;4.70;;;10.40;84.70;;;;;;5031418;28;20133;-45
2022/05/29 02:03:14;;;;;;;17.10;4.28;;;10.40;84.50;;;;;;5038990;28;20033;-45
2022/05/29 02:05:54;;;;;;;17.40;4.53;;;10.40;84.50;;;;;;5029538;28;20069;-44
2022/05/29 02:08:53;;;;;;;13.15;3.65;;;10.30;84.20;;;;;;5038183;28;20094;-43
2022/05/29 02:11:28;;;;;;;9.18;2.83;;;10.30;83.20;;;;;;5009653;28;20034;-43
2022/05/29 02:14:06;;;;;;;11.88;3.45;;;10.20;82.90;;;;;;5028179;28;20036;-43
2022/05/29 02:16:42;;;;;;;12.75;3.30;;;10.20;83.00;;;;;;5031922;28;20072;-42
2022/05/29 02:19:15;;;;;;;15.70;3.88;;;10.30;83.50;;;;;;5029393;28;20076;-44
2022/05/29 02:21:47;;;;;;;14.20;3.67;;;10.20;84.20;;;;;;5034594;28;20033;-43
2022/05/29 02:24:16;;;;;;;15.50;5.43;;;10.20;84.70;;;;;;5029026;28;20108;-43
2022/05/29 02:26:46;;;;;;;15.25;3.75;;;10.10;84.70;;;;;;5043587;28;20071;-44
2022/05/29 02:29:14;;;;;;;15.40;3.97;;;10.10;84.20;;;;;;5049159;28;20024;-44
2022/05/29 02:32:10;;;;;;;17.42;3.47;;;10.10;84.10;;;;;;5047715;28;20044;-44
2022/05/29 02:34:45;;;;;;;14.85;4.47;;;10.20;84.20;;;;;;5030736;28;20358;-45
2022/05/29 02:37:22;;;;;;;20.35;3.92;;;10.10;84.40;;;;;;5041061;28;20538;-44
2022/05/29 02:40:21;;;;;;;17.55;5.25;;;10.10;84.60;;;;;;5028937;28;20091;-45
2022/05/29 02:42:49;;;;;;;15.52;4.18;;;10.20;84.70;;;;;;5025250;28;20485;-43
2022/05/29 02:45:39;;;;;;;10.35;3.13;;;10.20;85.00;;;;;;5028358;28;20064;-42
2022/05/29 02:48:58;;;;;;;19.02;3.55;;;10.20;84.90;;;;;;5009783;28;20033;-47
2022/05/29 02:51:40;;;;;;;15.25;3.05;;;10.10;84.30;;;;;;5011616;28;20041;-46
2022/05/29 02:54:10;;;;;;;9.43;2.70;;;10.00;84.20;;;;;;5028322;28;20124;-43
2022/05/29 02:56:35;;;;;;;12.05;3.30;;;10.00;84.20;;;;;;5027604;28;20413;-45
2022/05/29 02:59:01;;;;;;;15.52;3.55;;;10.00;83.90;;;;;;5027543;28;20065;-46
2022/05/29 03:01:43;;;;;;;11.35;2.80;;;10.00;83.70;;;;;;5027838;28;20401;-44
2022/05/29 03:04:36;;;;;;;13.95;3.22;;;10.10;83.70;;;;;;5027411;28;20024;-44
2022/05/29 03:07:22;;;;;;;17.75;4.47;;;10.10;84.00;;;;;;5027455;28;20021;-43
2022/05/29 03:10:14;;;;;;;11.63;3.95;;;10.10;84.20;;;;;;5039404;28;20060;-48
2022/05/29 03:12:52;;;;;;;12.43;2.38;;;10.20;84.10;;;;;;5046012;28;20064;-43
2022/05/29 03:15:24;;;;;;;13.15;2.92;;;10.10;83.90;;;;;;5037397;28;20097;-46
2022/05/29 03:17:57;;;;;;;15.20;3.05;;;10.10;84.10;;;;;;5040940;28;20435;-47
2022/05/29 03:20:50;;;;;;;12.10;4.22;;;10.10;84.00;;;;;;5031842;28;20095;-45
2022/05/29 03:23:34;;;;;;;10.10;3.42;;;10.10;83.90;;;;;;5050367;28;20039;-43
2022/05/29 03:26:05;;;;;;;14.82;3.20;;;10.10;84.10;;;;;;5031878;28;20083;-45
2022/05/29 03:28:52;;;;;;;16.73;4.57;;;10.10;84.20;;;;;;5031841;28;20132;-43
2022/05/29 03:31:25;;;;;;;22.55;4.20;;;10.10;84.30;;;;;;5041554;28;20040;-43
2022/05/29 03:33:51;;;;;;;21.52;3.30;;;10.20;84.40;;;;;;5032505;28;20025;-44
2022/05/29 03:36:17;;;;;;;21.02;3.78;;;10.10;84.80;;;;;;5037813;28;20435;-43
2022/05/29 03:38:48;;;;;;;18.90;5.05;;;10.20;85.50;;;;;;5032302;28;20204;-44
2022/05/29 03:41:39;;;;;;;16.83;5.32;;;10.10;85.90;;;;;;5039319;28;20087;-45
2022/05/29 03:44:05;;;;;;;20.27;4.60;;;10.00;85.90;;;;;;5048154;28;20048;-44
2022/05/29 03:46:31;;;;;;;15.07;3.65;;;10.00;86.10;;;;;;5049703;28;20104;-44
2022/05/29 03:48:56;;;;;;;21.38;4.43;;;10.00;86.10;;;;;;5036626;28;20117;-43
2022/05/29 03:51:22;;;;;;;17.92;3.95;;;10.00;86.30;;;;;;5031213;28;20029;-43
2022/05/29 03:53:47;;;;;;;15.55;3.90;;;9.90;86.40;;;;;;5032452;28;20050;-43
2022/05/29 03:56:13;;;;;;;12.73;2.78;;;9.90;86.60;;;;;;5031132;28;20040;-44
2022/05/29 03:58:39;;;;;;;12.10;3.47;;;9.90;86.60;;;;;;5032228;28;20033;-44
2022/05/29 04:01:04;;;;;;;14.77;4.78;;;9.90;86.70;;;;;;5039095;28;20052;-45
2022/05/29 04:03:30;;;;;;;14.85;3.00;;;9.90;86.50;;;;;;5051907;28;20098;-44
2022/05/29 04:05:55;;;;;;;18.30;3.08;;;9.90;86.30;;;;;;5042482;28;20029;-47
2022/05/29 04:13:51;;;;;;;11.20;4.43;;;9.90;86.20;;;;;;5049891;28;20041;-42
2022/05/29 04:16:17;;;;;;;10.70;3.83;;;10.00;86.40;;;;;;5048721;28;20384;-42
2022/05/29 04:18:42;;;;;;;15.35;4.07;;;9.90;86.90;;;;;;5050634;28;20458;-43
2022/05/29 04:21:08;;;;;;;27.42;4.78;;;9.90;87.40;;;;;;5030198;28;20061;-43
2022/05/29 04:23:34;;;;;;;18.15;4.22;;;9.90;87.80;;;;;;5031926;28;20029;-43
2022/05/29 04:25:59;;;;;;;23.67;5.03;;;9.90;88.10;;;;;;5033993;28;20049;-42
2022/05/29 04:28:25;;;;;;;18.08;5.05;;;9.90;88.40;;;;;;5034992;28;20047;-46
2022/05/29 04:30:53;;;;;;;18.30;3.60;;;9.90;88.70;;;;;;5028294;28;20529;-47
2022/05/29 04:33:18;;;;;;;34.85;5.05;;;9.80;88.90;;;;;;5030177;28;20408;-47
2022/05/29 04:35:49;;;;;;;24.52;5.75;;;9.80;88.90;;;;;;5038122;28;20029;-47
2022/05/29 04:38:15;;;;;;;22.70;5.22;;;9.80;89.00;;;;;;5030910;28;20033;-47
2022/05/29 04:40:43;;;;;;;26.58;6.53;;;9.70;89.00;;;;;;5038728;28;20362;-48
2022/05/29 04:43:10;;;;;;;20.35;4.53;;;9.60;89.00;;;;;;5036369;28;20040;-47
2022/05/29 04:45:39;;;;;;;17.17;5.45;;;9.70;89.20;;;;;;5034458;28;20079;-48
2022/05/29 04:48:05;;;;;;;25.10;4.05;;;9.70;89.20;;;;;;5035506;28;20037;-48
2022/05/29 04:50:31;;;;;;;21.40;4.75;;;9.70;89.30;;;;;;5035642;28;20079;-47
2022/05/29 04:52:59;;;;;;;20.92;4.97;;;9.70;89.20;;;;;;5049194;28;20100;-48
2022/05/29 04:55:25;;;;;;;22.27;4.65;;;9.70;89.30;;;;;;5037537;28;20378;-48
2022/05/29 04:57:51;;;;;;;18.92;5.15;;;9.70;89.40;;;;;;5050130;28;20031;-48
2022/05/29 05:00:17;;;;;;;19.92;4.72;;;9.70;89.30;;;;;;5045485;28;20362;-47
2022/05/29 05:02:42;;;;;;;21.77;5.15;;;9.80;89.30;;;;;;5040442;28;20116;-47
2022/05/29 05:05:09;;;;;;;19.88;5.45;;;9.70;89.20;;;;;;5039872;28;20168;-47
2022/05/29 05:07:35;;;;;;;13.23;4.03;;;9.70;89.10;;;;;;5031002;28;20033;-47
2022/05/29 05:10:06;;;;;;;19.42;5.10;;;9.70;89.10;;;;;;5050607;28;20040;-50
2022/05/29 05:12:32;;;;;;;23.23;5.35;;;9.70;89.00;;;;;;5048313;28;20033;-50
2022/05/29 05:14:57;;;;;;;21.95;5.50;;;9.80;89.10;;;;;;5030707;28;20049;-47
2022/05/29 05:17:25;;;;;;;24.40;5.47;;;9.80;89.20;;;;;;5031809;28;20363;-46
2022/05/29 05:19:50;;;;;;;21.35;5.38;;;9.70;89.10;;;;;;5033713;28;20040;-46
2022/05/29 05:22:16;;;;;;;24.10;5.57;;;9.70;89.20;;;;;;5028932;28;20366;-47
2022/05/29 05:24:42;;;;;;;26.70;5.32;;;9.70;89.20;;;;;;5033055;28;20104;-47
2022/05/29 05:27:08;;;;;;;20.13;5.22;;;9.70;89.20;;;;;;5050197;28;20389;-48
2022/05/29 05:29:34;;;;;;;23.60;5.38;;;9.70;89.20;;;;;;5046241;28;20035;-49
2022/05/29 05:32:00;;;;;;;20.95;5.38;;;9.80;89.30;;;;;;5044203;28;20036;-49
2022/05/29 05:34:29;;;;;;;23.13;5.93;;;9.80;89.40;;;;;;5028704;28;20069;-49
2022/05/29 05:36:56;;;;;;;16.48;4.15;;;9.70;89.60;;;;;;5030012;28;20053;-49
2022/05/29 05:39:21;;;;;;;16.10;4.20;;;9.70;89.60;;;;;;5029375;28;20033;-49
2022/05/29 05:41:49;;;;;;;22.70;5.43;;;9.60;89.40;;;;;;5032236;28;20219;-52
2022/05/29 05:44:15;;;;;;;24.23;4.95;;;9.50;89.50;;;;;;5049984;28;20065;-57
2022/05/29 05:46:49;;;;;;;14.40;3.63;;;9.50;89.60;;;;;;5047036;28;20527;-55
2022/05/29 05:49:18;;;;;;;13.45;3.95;;;9.50;89.70;;;;;;5050041;28;20029;-51
2022/05/29 05:51:45;;;;;;;15.02;4.10;;;9.50;89.70;;;;;;5032051;28;20037;-51
2022/05/29 05:54:12;;;;;;;18.13;4.72;;;9.50;89.80;;;;;;5026296;28;20026;-50
2022/05/29 05:56:44;;;;;;;16.60;4.68;;;9.50;89.60;;;;;;5028857;28;20629;-53
2022/05/29 05:59:11;;;;;;;21.08;4.97;;;9.50;89.70;;;;;;5030036;28;20025;-54
2022/05/29 06:01:37;;;;;;;13.90;4.15;;;9.60;89.80;;;;;;5030611;28;20538;-51
2022/05/29 06:04:03;;;;;;;18.02;4.13;;;9.60;89.80;;;;;;5028842;28;20033;-52
2022/05/29 06:06:29;;;;;;;14.15;5.22;;;9.70;89.70;;;;;;5041735;28;20408;-50
2022/05/29 06:08:56;;;;;;;13.25;3.75;;;9.70;89.60;;;;;;5049662;28;20037;-50
2022/05/29 06:11:24;;;;;;;17.35;3.65;;;9.70;89.50;;;;;;5036465;28;20394;-57
2022/05/29 06:13:49;;;;;;;17.55;3.58;;;9.70;89.50;;;;;;5028056;28;20049;-62
2022/05/29 06:16:15;;;;;;;14.35;4.82;;;9.70;89.50;;;;;;5047288;28;20470;-63
2022/05/29 06:18:41;;;;;;;20.73;4.63;;;9.60;89.80;;;;;;5043200;28;20120;-64
2022/05/29 06:21:07;;;;;;;18.90;4.80;;;9.70;89.80;;;;;;5028796;28;20319;-63
2022/05/29 06:23:34;;;;;;;23.73;5.72;;;9.60;89.90;;;;;;5027816;28;20034;-62
2022/05/29 06:26:12;;;;;;;17.40;4.43;;;9.70;90.10;;;;;;5029359;28;20029;-63
2022/05/29 06:28:38;;;;;;;13.73;4.38;;;9.60;90.20;;;;;;5041020;28;20242;-61
2022/05/29 06:31:05;;;;;;;16.50;4.35;;;9.60;90.30;;;;;;5049587;28;20469;-55
2022/05/29 06:33:31;;;;;;;16.67;4.85;;;9.50;90.00;;;;;;5046549;28;20029;-58
2022/05/29 06:36:07;;;;;;;15.38;3.97;;;9.50;90.00;;;;;;5027124;28;20064;-57
2022/05/29 06:38:32;;;;;;;14.02;4.15;;;9.50;90.10;;;;;;5031084;28;20068;-58
2022/05/29 06:40:59;;;;;;;16.40;4.80;;;9.60;90.10;;;;;;5034338;28;20069;-54
2022/05/29 06:43:24;;;;;;;17.75;4.20;;;9.60;90.00;;;;;;5050009;28;20017;-56
2022/05/29 06:45:56;;;;;;;19.90;6.25;;;9.60;90.00;;;;;;5034693;28;20026;-51
2022/05/29 06:48:24;;;;;;;15.80;4.10;;;9.70;90.10;;;;;;5031911;28;20628;-54
2022/05/29 06:50:50;;;;;;;18.65;3.95;;;9.80;90.10;;;;;;5031766;28;20112;-51
2022/05/29 06:53:15;;;;;;;15.35;4.13;;;9.80;89.80;;;;;;5032092;28;20120;-51
2022/05/29 06:55:41;;;;;;;14.27;3.63;;;9.80;89.60;;;;;;5032897;28;21578;-48
2022/05/29 06:58:06;;;;;;;18.85;3.67;;;9.90;89.40;;;;;;5031058;28;20059;-52
2022/05/29 07:08:45;;;;;;;17.35;3.97;;;10.00;88.20;;;;;;5031921;28;20075;-45
2022/05/29 07:11:16;;;;;;;8.60;2.58;;;10.00;87.90;;;;;;5032204;28;20383;-46
2022/05/29 07:13:42;;;;;;;13.60;5.07;;;10.00;88.20;;;;;;5032204;28;20040;-44
2022/05/29 07:16:08;;;;;;;11.60;3.08;;;10.00;88.40;;;;;;5012816;28;20033;-46
2022/05/29 07:18:39;;;;;;;14.18;3.10;;;10.00;88.30;;;;;;5031992;28;20040;-43
2022/05/29 07:21:06;;;;;;;21.58;5.07;;;10.00;88.40;;;;;;5030356;28;20100;-44
2022/05/29 07:23:32;;;;;;;8.20;2.60;;;10.00;88.30;;;;;;5026633;28;20033;-44
2022/05/29 07:25:58;;;;;;;17.65;3.67;;;10.00;88.50;;;;;;5012162;28;20355;-44
2022/05/29 07:28:24;;;;;;;14.50;3.60;;;10.00;88.50;;;;;;5025789;28;20399;-57
2022/05/29 07:30:50;;;;;;;16.17;3.42;;;10.00;88.40;;;;;;5030071;28;20113;-61
2022/05/29 07:33:16;;;;;;;8.43;2.65;;;9.90;88.20;;;;;;5029549;28;20034;-59
2022/05/29 07:35:42;;;;;;;12.10;3.60;;;9.90;88.50;;;;;;5032787;28;20363;-58
2022/05/29 07:38:09;;;;;;;20.45;2.60;;;9.90;88.40;;;;;;5036690;28;20110;-52
2022/05/29 07:40:36;;;;;;;12.23;2.55;;;9.90;88.00;;;;;;5029681;28;20462;-53
2022/05/29 07:45:49;;;;;;;9.90;2.33;;;9.90;88.00;;;;;;5031685;28;20087;-49
2022/05/29 07:48:19;;;;;;;9.45;2.10;;;9.90;87.70;;;;;;5030989;28;20033;-49
2022/05/29 07:50:45;;;;;;;13.73;2.75;;;9.90;87.50;;;;;;5029098;28;20065;-49
2022/05/29 07:53:10;;;;;;;12.07;3.08;;;9.90;87.60;;;;;;5031067;28;20037;-48
2022/05/29 07:55:39;;;;;;;11.95;3.25;;;9.90;87.60;;;;;;5013840;28;20041;-47
2022/05/29 07:58:06;;;;;;;12.57;3.05;;;9.90;87.90;;;;;;5051940;28;20048;-48
2022/05/29 08:00:34;;;;;;;18.27;3.25;;;9.90;88.10;;;;;;5037744;28;20119;-47
2022/05/29 08:03:00;;;;;;;10.77;2.47;;;9.90;88.10;;;;;;5030583;28;20109;-50
2022/05/29 08:05:26;;;;;;;17.85;4.28;;;9.90;88.30;;;;;;5032193;28;20116;-55
2022/05/29 08:07:52;;;;;;;15.15;2.63;;;9.90;88.30;;;;;;5031203;28;20022;-58
2022/05/29 08:10:24;;;;;;;16.88;3.33;;;9.90;88.30;;;;;;5028904;28;20034;-57
2022/05/29 08:12:50;;;;;;;18.05;3.10;;;9.90;88.70;;;;;;5027601;28;20032;-56
2022/05/29 08:15:16;;;;;;;16.00;3.83;;;9.90;88.60;;;;;;5028751;28;20033;-51
2022/05/29 08:17:43;;;;;;;18.02;3.58;;;9.90;88.60;;;;;;5029661;28;20120;-49
2022/05/29 08:20:12;;;;;;;17.23;3.97;;;10.00;88.70;;;;;;5028071;28;20065;-49
2022/05/29 08:22:39;;;;;;;14.37;3.40;;;10.10;88.70;;;;;;5029233;28;20090;-51
2022/05/29 08:30:51;;;;;;;13.48;2.90;;;10.10;87.90;;;;;;5018947;28;20472;-47
2022/05/29 08:33:24;;;;;;;18.10;3.53;;;10.10;87.70;;;;;;5024482;28;20763;-47
2022/05/29 08:35:57;;;;;;;14.65;3.25;;;10.20;87.70;;;;;;5025401;28;20036;-49
2022/05/29 08:38:22;;;;;;;10.63;2.40;;;10.20;87.90;;;;;;5029861;28;20112;-50
2022/05/29 08:40:53;;;;;;;9.40;2.05;;;10.30;87.90;;;;;;5040676;28;20112;-49
2022/05/29 08:43:31;;;;;;;9.50;2.25;;;10.30;88.00;;;;;;5028913;28;20084;-48
2022/05/29 08:46:02;;;;;;;9.70;2.65;;;10.30;87.60;;;;;;5026365;28;20480;-50
2022/05/29 08:48:29;;;;;;;13.95;3.42;;;10.30;88.00;;;;;;5042142;28;20460;-46
2022/05/29 08:51:23;;;;;;;11.90;2.95;;;10.40;88.20;;;;;;5036120;28;20148;-46
2022/05/29 08:54:04;;;;;;;10.23;2.42;;;10.50;88.10;;;;;;5029767;28;20046;-45
2022/05/29 08:56:37;;;;;;;10.18;2.58;;;10.50;86.80;;;;;;5034442;28;20073;-44
2022/05/29 08:59:11;;;;;;;12.68;2.13;;;10.60;86.80;;;;;;5027049;28;20087;-45
2022/05/29 09:01:58;;;;;;;12.65;3.83;;;10.60;86.50;;;;;;5028468;28;20037;-44
2022/05/29 09:04:40;;;;;;;15.65;4.50;;;10.50;86.20;;;;;;5027534;28;20030;-44
2022/05/29 09:07:09;;;;;;;12.32;2.65;;;10.40;86.10;;;;;;5028060;28;20029;-48
2022/05/29 09:09:40;;;;;;;17.17;4.40;;;10.40;86.10;;;;;;5028104;28;20768;-43
2022/05/29 09:12:11;;;;;;;12.00;3.13;;;10.40;85.90;;;;;;5024479;28;20034;-46
2022/05/29 09:14:39;;;;;;;14.90;2.75;;;10.40;85.60;;;;;;5033850;28;20111;-44
2022/05/29 09:17:29;;;;;;;16.65;2.78;;;10.50;85.50;;;;;;5031514;28;20084;-43
2022/05/29 09:20:00;;;;;;;9.98;2.53;;;10.60;85.30;;;;;;5026322;28;20063;-42
2022/05/29 09:22:36;;;;;;;21.33;4.13;;;10.70;85.20;;;;;;5026855;28;20022;-42
2022/05/29 09:25:37;;;;;;;12.75;2.78;;;10.60;85.00;;;;;;5026480;28;20029;-42
2022/05/29 09:28:08;;;;;;;16.27;3.28;;;10.60;85.70;;;;;;5000766;28;20046;-42
2022/05/29 09:30:33;;;;;;;10.43;2.35;;;10.60;86.20;;;;;;5027830;28;20029;-43
2022/05/29 09:33:07;;;;;;;11.55;3.10;;;10.60;86.50;;;;;;5008591;28;20367;-44
2022/05/29 09:35:58;;;;;;;12.65;2.40;;;10.80;86.40;;;;;;5028083;28;20057;-42
2022/05/29 09:38:34;;;;;;;12.27;2.45;;;10.80;85.80;;;;;;5023440;28;20044;-42
2022/05/29 09:41:34;;;;;;;11.27;2.65;;;10.90;85.90;;;;;;5028361;28;20021;-42
2022/05/29 09:44:08;;;;;;;;;;;10.90;85.60;;;;;;5026925;28;20039;-42
2022/05/29 09:46:39;;;;;;;5.95;2.03;;;10.90;85.60;;;;;;5034713;28;19920;-42
2022/05/29 09:52:24;;;;;;;12.98;2.42;;;11.00;85.60;;;;;;5033626;28;20048;-45
2022/05/29 09:55:26;;;;;;;13.85;3.15;;;10.90;85.80;;;;;;5027249;28;20029;-46
2022/05/29 09:57:56;;;;;;;14.88;3.10;;;10.70;86.70;;;;;;5021639;28;20113;-50
2022/05/29 10:00:29;;;;;;;23.15;4.68;;;10.60;87.10;;;;;;5021594;28;20619;-49
2022/05/29 10:02:59;;;;;;;10.32;2.75;;;10.70;87.50;;;;;;5024063;28;20521;-48
2022/05/29 10:05:33;;;;;;;16.20;3.88;;;10.80;87.70;;;;;;5024933;28;20063;-46
2022/05/29 10:08:15;;;;;;;14.15;3.25;;;10.80;87.10;;;;;;5020591;28;20038;-45
2022/05/29 10:10:43;;;;;;;12.73;2.88;;;10.90;86.80;;;;;;5025251;28;20040;-46
2022/05/29 10:13:09;;;;;;;16.60;2.83;;;10.90;86.00;;;;;;5027858;28;20446;-44
2022/05/29 10:15:38;;;;;;;11.60;3.20;;;11.00;86.00;;;;;;5024283;28;20037;-44
2022/05/29 10:18:30;;;;;;;14.75;3.13;;;11.00;86.00;;;;;;5028553;28;20060;-46
2022/05/29 10:21:27;;;;;;;13.70;2.55;;;11.00;85.60;;;;;;5037536;28;20033;-44
2022/05/29 10:24:20;;;;;;;18.42;3.58;;;10.90;84.90;;;;;;5025803;28;20108;-42
2022/05/29 10:26:52;;;;;;;16.75;2.90;;;10.90;85.10;;;;;;5037567;28;20033;-44
2022/05/29 10:29:23;;;;;;;12.43;2.80;;;11.00;84.60;;;;;;5033225;28;20028;-45
2022/05/29 10:31:51;;;;;;;14.40;3.15;;;11.10;84.00;;;;;;5028936;28;20083;-43
2022/05/29 10:34:29;;;;;;;14.95;3.55;;;11.20;84.60;;;;;;5028750;28;20053;-42
2022/05/29 10:36:56;;;;;;;11.77;2.80;;;11.20;83.90;;;;;;5029062;28;20053;-42
2022/05/29 10:39:29;;;;;;;12.77;2.00;;;11.20;82.20;;;;;;5033565;28;20623;-45
2022/05/29 10:41:57;;;;;;;16.73;3.20;;;11.30;83.00;;;;;;5045979;28;20029;-43
2022/05/29 10:44:41;;;;;;;12.30;2.90;;;11.50;83.10;;;;;;5036763;28;20108;-42
2022/05/29 10:47:24;;;;;;;10.48;3.00;;;11.60;81.20;;;;;;5034044;28;20438;-45
2022/05/29 10:49:55;;;;;;;16.48;3.00;;;11.50;80.90;;;;;;5036782;28;20373;-43
2022/05/29 10:52:53;;;;;;;8.98;2.42;;;11.50;80.40;;;;;;5037055;28;20060;-43
2022/05/29 10:55:25;;;;;;;10.98;2.75;;;11.40;81.50;;;;;;5035312;28;20030;-43
2022/05/29 10:58:13;;;;;;;15.52;2.67;;;11.40;81.80;;;;;;5028323;28;20446;-42
2022/05/29 11:00:50;;;;;;;17.30;3.20;;;11.30;80.90;;;;;;5035210;28;20126;-42
2022/05/29 11:03:51;;;;;;;10.10;2.38;;;11.40;81.00;;;;;;5044083;28;20029;-43
2022/05/29 11:06:51;;;;;;;11.30;3.47;;;11.60;80.30;;;;;;5040542;28;20033;-46
2022/05/29 11:09:48;;;;;;;14.05;2.83;;;11.80;80.70;;;;;;5009549;28;20037;-47
2022/05/29 11:12:37;;;;;;;8.38;2.60;;;11.90;79.80;;;;;;5021752;28;20570;-43
2022/05/29 11:15:12;;;;;;;9.38;2.22;;;12.10;78.80;;;;;;5025626;28;20505;-44
2022/05/29 11:17:59;;;;;;;12.65;2.90;;;12.20;78.30;;;;;;5016506;28;20041;-44
2022/05/29 11:20:46;;;;;;;11.68;2.63;;;12.30;77.60;;;;;;5024082;28;20022;-44
2022/05/29 11:23:35;;;;;;;12.57;3.15;;;12.40;76.40;;;;;;5023296;28;20036;-46
2022/05/29 11:26:23;;;;;;;7.57;2.17;;;12.50;77.50;;;;;;5026618;28;20314;-46
2022/05/29 11:29:09;;;;;;;10.07;3.65;;;12.60;77.10;;;;;;5028815;28;20129;-46
2022/05/29 11:31:43;;;;;;;13.80;3.72;;;12.50;75.10;;;;;;5015526;28;20098;-43
2022/05/29 11:34:18;;;;;;;16.67;3.33;;;12.60;75.70;;;;;;5029165;28;20470;-47
2022/05/29 11:37:08;;;;;;;11.40;3.00;;;12.70;75.50;;;;;;5025724;28;20447;-44
2022/05/29 11:39:42;;;;;;;;;;;12.70;76.00;;;;;;5040971;28;20032;-44
2022/05/29 11:42:48;;;;;;;9.18;2.92;;;12.40;74.40;;;;;;5029595;28;19917;-45
2022/05/29 11:45:17;;;;;;;12.07;3.20;;;12.10;74.70;;;;;;5022978;28;20079;-43
2022/05/29 11:51:08;;;;;;;11.60;3.05;;;11.90;77.30;;;;;;5030901;28;20120;-44
2022/05/29 11:54:04;;;;;;;11.60;3.08;;;11.90;77.00;;;;;;5021188;28;20053;-44
2022/05/29 11:56:38;;;;;;;15.48;3.95;;;11.90;76.40;;;;;;5036887;28;20473;-43
2022/05/29 11:59:16;;;;;;;13.02;4.32;;;11.90;76.90;;;;;;5051612;28;20044;-46
2022/05/29 12:01:48;;;;;;;11.10;3.28;;;12.10;77.70;;;;;;5032813;28;20022;-44
2022/05/29 12:04:38;;;;;;;13.32;3.15;;;12.20;76.70;;;;;;5028084;28;20033;-46
2022/05/29 12:07:18;;;;;;;16.85;3.05;;;12.20;75.70;;;;;;5028786;28;20083;-44
2022/05/29 12:09:58;;;;;;;14.68;3.53;;;12.20;75.60;;;;;;5025481;28;20124;-42
2022/05/29 12:12:32;;;;;;;11.75;2.72;;;12.20;75.90;;;;;;5027761;28;20029;-44
2022/05/29 12:15:02;;;;;;;11.48;2.42;;;12.30;75.20;;;;;;5030305;28;20022;-44
2022/05/29 12:18:04;;;;;;;10.30;2.35;;;12.30;75.80;;;;;;5018512;28;20040;-45
2022/05/29 12:20:49;;;;;;;23.40;3.58;;;12.40;75.30;;;;;;5024665;28;20046;-43
2022/05/29 12:23:26;;;;;;;22.58;2.88;;;12.20;74.40;;;;;;5028603;28;20466;-44
2022/05/29 12:26:00;;;;;;;15.93;3.70;;;12.20;75.00;;;;;;5017106;28;20449;-43
2022/05/29 12:28:43;;;;;;;12.13;5.43;;;12.20;75.10;;;;;;5042679;28;20609;-44
2022/05/29 12:31:33;;;;;;;14.73;3.22;;;12.20;75.20;;;;;;5036807;28;20029;-44
2022/05/29 12:33:58;;;;;;;9.77;1.58;;;12.30;73.90;;;;;;5031159;28;20052;-44
2022/05/29 12:37:02;;;;;;;10.48;2.58;;;12.30;72.90;;;;;;5018915;28;20030;-44
2022/05/29 12:39:33;;;;;;;10.60;3.15;;;12.40;73.70;;;;;;5019861;28;20065;-45
2022/05/29 12:42:34;;;;;;;11.80;2.28;;;12.50;72.40;;;;;;5016852;28;20057;-45
2022/05/29 12:45:25;;;;;;;14.82;3.10;;;12.40;73.90;;;;;;5009828;28;20415;-43
2022/05/29 12:48:19;;;;;;;10.85;2.70;;;12.40;75.40;;;;;;5010714;28;20048;-43
2022/05/29 12:51:05;;;;;;;16.58;3.03;;;12.40;75.00;;;;;;5013769;28;20414;-43
2022/05/29 12:54:09;;;;;;;10.23;3.10;;;12.50;74.80;;;;;;5011549;28;20050;-45
2022/05/29 12:56:40;;;;;;;10.13;3.17;;;12.60;73.90;;;;;;5019620;28;20025;-45
2022/05/29 12:59:08;;;;;;;11.32;3.65;;;12.60;73.70;;;;;;5011302;28;20018;-45
2022/05/29 13:02:02;;;;;;;20.00;3.03;;;12.60;73.50;;;;;;5025146;28;20468;-45
2022/05/29 13:04:40;;;;;;;18.90;4.03;;;12.50;74.10;;;;;;5023088;28;20057;-44
2022/05/29 13:07:18;;;;;;;15.52;3.17;;;12.40;73.80;;;;;;5027153;28;20036;-45
2022/05/29 13:09:59;;;;;;;12.40;2.85;;;12.30;74.20;;;;;;5019687;28;20029;-44
2022/05/29 13:12:40;;;;;;;15.55;2.78;;;12.20;74.30;;;;;;5025150;28;20616;-43
2022/05/29 13:15:10;;;;;;;8.77;2.63;;;12.30;73.70;;;;;;5022570;28;20134;-43
2022/05/29 13:17:36;;;;;;;12.10;2.47;;;12.20;72.90;;;;;;5022705;28;20094;-47
2022/05/29 13:20:51;;;;;;;15.85;2.70;;;12.00;73.50;;;;;;5021238;28;20053;-46
2022/05/29 13:23:58;;;;;;;14.73;2.75;;;11.90;73.60;;;;;;5030905;28;20051;-42
2022/05/29 13:26:28;;;;;;;10.38;2.42;;;11.80;75.30;;;;;;5026334;28;20042;-44
2022/05/29 13:29:12;;;;;;;10.75;2.47;;;11.50;75.80;;;;;;5025546;28;20079;-44
2022/05/29 13:32:14;;;;;;;14.40;3.17;;;11.50;76.50;;;;;;5028145;28;20048;-44
2022/05/29 13:34:43;;;;;;;20.08;10.75;;;11.50;76.30;;;;;;5016315;28;20044;-44
2022/05/29 13:37:32;;;;;;;15.02;8.27;;;11.50;76.90;;;;;;5026588;28;20026;-45
2022/05/29 13:40:20;;;;;;;13.07;4.65;;;11.50;77.10;;;;;;5024366;28;20025;-46
2022/05/29 13:42:49;;;;;;;16.08;2.70;;;11.60;76.40;;;;;;5029124;28;20079;-44
2022/05/29 13:45:23;;;;;;;17.88;2.67;;;11.60;75.60;;;;;;5024392;28;20026;-44
2022/05/29 13:47:49;;;;;;;12.60;2.55;;;11.60;74.50;;;;;;5028330;28;20469;-43